createdAt,value
2019-02-27T00:02:27.635Z,66.50
2019-02-27T00:06:32.175Z,67.20
2019-02-27T00:10:55.870Z,66.70
2019-02-27T00:15:02.212Z,66.50
2019-02-27T00:19:06.699Z,67.30
2019-02-27T00:23:11.219Z,67.20
2019-02-27T00:27:15.751Z,67.30
2019-02-27T00:31:20.288Z,67.40
2019-02-27T00:35:24.823Z,66.50
2019-02-27T00:39:44.576Z,66.80
2019-02-27T00:43:49.187Z,67.40
2019-02-27T00:47:53.840Z,67.40
2019-02-27T00:51:58.380Z,67.30
2019-02-27T01:00:07.617Z,66.80
2019-02-27T01:04:12.154Z,67.50
2019-02-27T01:08:16.659Z,66.90
2019-02-27T01:12:22.895Z,67.80
2019-02-27T01:16:28.227Z,68.80
2019-02-27T01:20:33.007Z,67.60
2019-02-27T01:24:37.580Z,67.70
2019-02-27T01:30:07.924Z,67.10
2019-02-27T01:35:52.282Z,67.00
2019-02-27T01:39:56.879Z,67.00
2019-02-27T01:44:01.414Z,67.00
2019-02-27T01:53:30.268Z,67.40
2019-02-27T01:57:36.806Z,67.20
2019-02-27T02:01:41.097Z,67.20
2019-02-27T02:05:45.627Z,67.80
2019-02-27T02:09:54.998Z,67.70
2019-02-27T02:15:30.044Z,67.00
2019-02-27T02:20:27.232Z,67.80
2019-02-27T02:25:16.296Z,67.70
2019-02-27T02:32:03.440Z,67.40
2019-02-27T02:36:25.075Z,67.10
2019-02-27T02:42:07.789Z,67.10
2019-02-27T02:46:55.942Z,67.70
2019-02-27T02:51:41.682Z,67.50
2019-02-27T02:56:15.198Z,67.60
2019-02-27T03:00:46.932Z,67.80
2019-02-27T03:05:34.361Z,67.50
2019-02-27T03:10:10.036Z,68.90
2019-02-27T03:14:55.825Z,67.50
2019-02-27T03:23:15.692Z,67.40
2019-02-27T03:27:42.140Z,67.30
2019-02-27T03:32:07.327Z,67.20
2019-02-27T03:36:48.407Z,67.20
2019-02-27T03:41:41.238Z,67.80
2019-02-27T03:46:40.854Z,67.30
2019-02-27T03:51:16.785Z,67.20
2019-02-27T03:55:53.300Z,68.60
2019-02-27T04:00:33.527Z,69.20
2019-02-27T04:05:16.245Z,69.90
2019-02-27T04:09:20.745Z,73.10
2019-02-27T04:13:27.705Z,70.00
2019-02-27T04:17:29.857Z,67.80
2019-02-27T04:21:34.400Z,68.30
2019-02-27T04:25:38.915Z,67.90
2019-02-27T04:29:43.457Z,67.60
2019-02-27T04:33:48.112Z,70.50
2019-02-27T04:37:54.290Z,69.10
2019-02-27T04:41:58.824Z,68.40
2019-02-27T04:46:03.371Z,68.80
2019-02-27T04:50:10.909Z,68.50
2019-02-27T04:54:14.324Z,69.70
2019-02-27T04:58:18.862Z,68.60
2019-02-27T05:02:23.402Z,69.10
2019-02-27T05:13:39.755Z,68.20
2019-02-27T05:17:44.366Z,69.60
2019-02-27T05:21:52.246Z,68.50
2019-02-27T05:25:55.092Z,68.10
2019-02-27T05:30:00.095Z,68.60
2019-02-27T05:34:04.791Z,68.10
2019-02-27T05:38:09.276Z,68.00
2019-02-27T05:44:42.730Z,68.40
2019-02-27T05:52:48.806Z,67.90
2019-02-27T05:56:53.260Z,68.60
2019-02-27T06:00:57.793Z,69.90
2019-02-27T06:05:02.352Z,69.70
2019-02-27T06:09:09.878Z,69.00
2019-02-27T06:13:14.678Z,70.10
2019-02-27T06:17:19.308Z,71.20
2019-02-27T06:21:23.860Z,70.60
2019-02-27T06:25:28.396Z,70.80
2019-02-27T06:29:32.894Z,70.80
2019-02-27T06:33:37.454Z,69.70
2019-02-27T06:37:42.006Z,69.70
2019-02-27T06:41:47.431Z,69.60
2019-02-27T06:45:54.212Z,69.50
2019-02-27T06:49:58.893Z,68.20
2019-02-27T06:54:03.435Z,69.90
2019-02-27T06:58:08.038Z,68.70
2019-02-27T07:02:12.544Z,69.40
2019-02-27T07:06:21.367Z,69.60
2019-02-27T07:10:23.229Z,70.00
2019-02-27T07:14:28.064Z,70.40
2019-02-27T07:19:31.068Z,71.80
2019-02-27T07:23:35.652Z,73.40
2019-02-27T07:27:40.331Z,70.80
2019-02-27T07:31:44.876Z,71.40
2019-02-27T07:35:49.375Z,72.40
2019-02-27T07:39:53.953Z,75.10
2019-02-27T07:43:58.500Z,75.70
2019-02-27T07:48:03.052Z,74.50
2019-02-27T07:54:35.613Z,74.40
2019-02-27T07:58:40.184Z,74.50
2019-02-27T08:02:44.734Z,77.10
2019-02-27T08:06:49.288Z,76.80
2019-02-27T08:10:53.914Z,73.70
2019-02-27T08:18:47.189Z,73.60
2019-02-27T08:22:51.765Z,74.60
2019-02-27T08:26:56.293Z,72.30
2019-02-27T08:31:00.865Z,74.40
2019-02-27T08:35:05.607Z,72.70
2019-02-27T08:39:10.205Z,78.20
2019-02-27T08:43:14.736Z,74.80
2019-02-27T08:51:08.374Z,72.70
2019-02-27T09:00:23.299Z,74.10
2019-02-27T09:13:17.564Z,74.60
2019-02-27T09:20:34.012Z,75.00
2019-02-27T09:24:38.571Z,74.30
2019-02-27T09:28:44.488Z,74.70
2019-02-27T09:32:49.333Z,74.50
2019-02-27T09:36:53.908Z,75.30
2019-02-27T09:43:12.185Z,74.80
2019-02-27T09:47:16.750Z,73.70
2019-02-27T09:51:22.304Z,73.80
2019-02-27T10:02:49.744Z,71.50
2019-02-27T10:09:20.465Z,70.60
2019-02-27T10:13:25.067Z,70.90
2019-02-27T10:17:29.633Z,71.20
2019-02-27T10:21:34.191Z,70.60
2019-02-27T10:25:43.248Z,70.70
2019-02-27T10:29:47.505Z,66.30
2019-02-27T10:33:51.206Z,66.20
2019-02-27T10:37:55.797Z,64.30
2019-02-27T10:42:00.416Z,63.80
2019-02-27T10:46:04.994Z,63.30
2019-02-27T10:50:09.984Z,63.10
2019-02-27T10:54:14.566Z,62.70
2019-02-27T10:58:19.128Z,61.70
2019-02-27T11:02:23.809Z,61.70
2019-02-27T11:06:33.896Z,61.20
2019-02-27T11:10:34.626Z,61.30
2019-02-27T11:14:39.233Z,61.00
2019-02-27T11:18:43.797Z,61.00
2019-02-27T11:22:48.336Z,60.40
2019-02-27T11:26:52.913Z,60.70
2019-02-27T11:30:57.489Z,59.80
2019-02-27T11:35:02.053Z,60.50
2019-02-27T11:39:07.669Z,60.30
2019-02-27T11:43:12.199Z,60.20
2019-02-27T11:47:16.758Z,60.40
2019-02-27T11:51:21.346Z,60.10
2019-02-27T11:55:25.939Z,59.80
2019-02-27T11:59:30.504Z,59.80
2019-02-27T12:03:35.198Z,59.30
2019-02-27T12:07:39.802Z,59.80
2019-02-27T12:11:48.326Z,59.30
2019-02-27T12:15:50.661Z,59.50
2019-02-27T12:19:55.298Z,58.90
2019-02-27T12:23:59.855Z,59.10
2019-02-27T12:28:05.906Z,58.70
2019-02-27T12:32:10.498Z,58.90
2019-02-27T12:36:16.027Z,58.70
2019-02-27T12:40:24.983Z,58.20
2019-02-27T12:44:28.086Z,56.10
2019-02-27T12:48:32.658Z,57.30
2019-02-27T12:52:37.238Z,57.10
2019-02-27T12:56:44.460Z,58.20
2019-02-27T13:00:48.025Z,58.10
2019-02-27T13:04:53.195Z,61.60
2019-02-27T13:08:57.824Z,62.60
2019-02-27T13:13:02.439Z,62.00
2019-02-27T13:17:07.005Z,62.60
2019-02-27T13:21:11.573Z,62.90
2019-02-27T13:25:16.094Z,64.30
2019-02-27T13:29:21.385Z,62.70
2019-02-27T13:33:26.112Z,64.50
2019-02-27T13:37:30.675Z,64.80
2019-02-27T13:41:35.245Z,63.70
2019-02-27T13:45:39.818Z,64.30
2019-02-27T13:49:45.025Z,64.70
2019-02-27T13:53:50.587Z,64.00
2019-02-27T13:57:58.855Z,64.90
2019-02-27T14:02:04.158Z,60.90
2019-02-27T14:06:09.344Z,64.80
2019-02-27T14:10:17.159Z,64.30
2019-02-27T14:14:21.214Z,59.60
2019-02-27T14:18:25.793Z,64.80
2019-02-27T14:22:30.372Z,63.60
2019-02-27T14:26:34.934Z,63.80
2019-02-27T14:30:42.156Z,64.60
2019-02-27T14:34:46.732Z,64.60
2019-02-27T14:38:53.363Z,64.90
2019-02-27T14:42:57.595Z,64.00
2019-02-27T14:47:02.178Z,64.80
2019-02-27T14:51:07.994Z,64.90
2019-02-27T14:55:13.888Z,66.40
2019-02-27T14:59:18.480Z,65.50
2019-02-27T15:03:23.065Z,66.60
2019-02-27T15:07:27.665Z,65.70
2019-02-27T15:11:32.253Z,68.10
2019-02-27T15:15:43.742Z,68.10
2019-02-27T15:19:49.482Z,68.90
2019-02-27T15:23:54.218Z,68.30
2019-02-27T15:27:59.872Z,68.60
2019-02-27T15:32:04.530Z,69.00
2019-02-27T15:36:09.189Z,67.60
2019-02-27T15:40:16.005Z,67.10
2019-02-27T15:44:20.568Z,65.80
2019-02-27T15:48:25.233Z,65.20
2019-02-27T15:52:29.804Z,64.60
2019-02-27T15:56:34.404Z,59.20
2019-02-27T16:00:39.625Z,63.10
2019-02-27T16:04:44.190Z,63.90
2019-02-27T16:08:48.779Z,64.10
2019-02-27T16:12:53.350Z,64.20
2019-02-27T16:16:58.316Z,64.10
2019-02-27T16:21:03.001Z,64.30
2019-02-27T16:28:16.609Z,61.80
2019-02-27T16:32:21.230Z,64.50
2019-02-27T16:36:25.796Z,64.10
2019-02-27T16:40:30.375Z,65.20
2019-02-27T16:44:34.914Z,64.60
2019-02-27T16:48:39.496Z,64.40
2019-02-27T16:52:44.102Z,65.10
2019-02-27T16:56:50.891Z,64.60
2019-02-27T17:00:55.567Z,64.50
2019-02-27T17:05:00.319Z,64.40
2019-02-27T17:11:40.689Z,63.90
2019-02-27T17:15:45.216Z,63.90
2019-02-27T17:19:49.777Z,65.30
2019-02-27T17:23:54.320Z,63.10
2019-02-27T17:27:58.905Z,64.50
2019-02-27T17:32:03.461Z,64.90
2019-02-27T17:36:08.043Z,64.50
2019-02-27T17:40:13.137Z,64.50
2019-02-27T17:44:17.703Z,64.60
2019-02-27T17:48:22.273Z,64.40
2019-02-27T17:52:26.828Z,65.40
2019-02-27T17:56:31.370Z,63.70
2019-02-27T18:00:38.242Z,64.50
2019-02-27T18:04:45.320Z,64.90
2019-02-27T18:08:51.574Z,64.50
2019-02-27T18:12:55.256Z,64.90
2019-02-27T18:17:00.330Z,64.20
2019-02-27T18:21:05.002Z,65.20
2019-02-27T18:25:09.961Z,64.90
2019-02-27T18:29:14.516Z,65.20
2019-02-27T18:34:13.476Z,63.50
2019-02-27T18:38:18.048Z,64.70
2019-02-27T18:42:22.580Z,65.00
2019-02-27T18:46:27.152Z,64.90
2019-02-27T18:50:31.714Z,65.20
2019-02-27T18:54:36.281Z,63.30
2019-02-27T18:58:40.814Z,64.20
2019-02-27T19:02:45.425Z,63.80
2019-02-27T19:07:17.327Z,63.60
2019-02-27T19:11:22.466Z,64.10
2019-02-27T19:15:27.274Z,64.90
2019-02-27T19:19:31.807Z,63.60
2019-02-27T19:23:36.363Z,64.10
2019-02-27T19:27:41.048Z,65.10
2019-02-27T19:31:48.283Z,64.80
2019-02-27T19:35:55.858Z,65.70
2019-02-27T19:39:58.104Z,65.50
2019-02-27T19:44:02.672Z,65.40
2019-02-27T19:48:07.253Z,65.40
2019-02-27T19:52:11.842Z,65.30
2019-02-27T19:56:16.401Z,65.20
2019-02-27T20:00:22.792Z,65.30
2019-02-27T20:04:27.423Z,65.50
2019-02-27T20:08:31.956Z,65.60
2019-02-27T20:12:36.544Z,64.80
2019-02-27T20:16:41.123Z,64.90
2019-02-27T20:20:45.861Z,65.90
2019-02-27T20:24:50.544Z,65.20
2019-02-27T20:28:55.207Z,64.10
2019-02-27T20:33:02.493Z,63.70
2019-02-27T20:37:06.390Z,63.30
2019-02-27T20:41:11.888Z,63.00
2019-02-27T20:45:16.932Z,62.90
2019-02-27T20:49:21.516Z,62.70
2019-02-27T20:53:26.087Z,62.80
2019-02-27T20:57:30.645Z,63.00
2019-02-27T21:01:35.196Z,63.50
2019-02-27T21:05:40.835Z,61.90
2019-02-27T21:09:46.218Z,62.50
2019-02-27T21:13:50.833Z,62.50
2019-02-27T21:17:57.499Z,62.40
2019-02-27T21:22:01.595Z,62.50
2019-02-27T21:26:06.164Z,62.50
2019-02-27T21:30:17.763Z,62.50
2019-02-27T21:34:20.229Z,62.50
2019-02-27T21:38:24.921Z,62.60
2019-02-27T21:42:29.560Z,62.60
2019-02-27T21:46:34.110Z,62.70
2019-02-27T21:50:39.904Z,62.80
2019-02-27T21:54:44.989Z,62.80
2019-02-27T21:58:49.649Z,62.90
2019-02-27T22:02:54.528Z,63.00
2019-02-27T22:06:59.542Z,62.90
2019-02-27T22:11:04.358Z,63.20
2019-02-27T22:15:14.629Z,63.30
2019-02-27T22:19:20.029Z,63.20
2019-02-27T22:23:24.671Z,63.10
2019-02-27T22:27:29.281Z,63.10
2019-02-27T22:31:33.891Z,63.00
2019-02-27T22:35:38.620Z,63.00
2019-02-27T22:39:43.264Z,63.00
2019-02-27T22:43:47.860Z,62.80
2019-02-27T22:47:53.854Z,63.00
2019-02-27T22:51:58.670Z,63.00
2019-02-27T22:56:03.232Z,63.20
2019-02-27T23:00:29.656Z,63.50
2019-02-27T23:04:34.880Z,63.50
2019-02-27T23:08:39.874Z,63.70
2019-02-27T23:12:44.594Z,63.60
2019-02-27T23:16:49.174Z,63.60
2019-02-27T23:20:55.510Z,64.40
2019-02-27T23:25:00.027Z,63.50
2019-02-27T23:29:05.546Z,63.50
2019-02-27T23:33:10.888Z,63.60
2019-02-27T23:37:15.434Z,63.70
2019-02-27T23:41:22.925Z,63.90
2019-02-27T23:45:26.229Z,64.10
2019-02-27T23:49:30.802Z,64.10
2019-02-27T23:53:35.385Z,64.20
2019-02-27T23:57:40.105Z,64.20
